createdAt,value
2019-05-22T00:13:10.601Z,6.63
2019-05-22T00:28:19.784Z,6.00
2019-05-22T00:43:39.508Z,7.43
2019-05-22T00:58:58.355Z,8.10
2019-05-22T01:14:08.002Z,8.80
2019-05-22T01:29:16.925Z,10.40
2019-05-22T01:44:26.254Z,12.50
2019-05-22T01:59:36.813Z,13.18
2019-05-22T02:14:50.804Z,13.00
2019-05-22T02:29:59.053Z,12.90
2019-05-22T02:45:09.354Z,14.43
2019-05-22T03:00:19.370Z,14.13
2019-05-22T03:15:28.354Z,17.35
2019-05-22T03:30:40.170Z,17.67
2019-05-22T03:45:49.877Z,17.57
2019-05-22T04:00:59.468Z,16.30
2019-05-22T04:16:10.701Z,17.13
2019-05-22T04:31:19.712Z,16.63
2019-05-22T04:46:27.605Z,15.53
2019-05-22T05:01:36.402Z,18.00
2019-05-22T05:16:44.247Z,18.10
2019-05-22T05:31:52.678Z,17.17
2019-05-22T05:47:01.217Z,16.17
2019-05-22T06:02:09.435Z,15.70
2019-05-22T06:17:54.736Z,15.53
2019-05-22T06:33:39.467Z,14.80
2019-05-22T06:48:47.388Z,15.05
2019-05-22T07:03:55.424Z,15.93
2019-05-22T07:19:04.056Z,15.47
2019-05-22T07:34:13.270Z,16.20
2019-05-22T07:49:21.826Z,14.70
2019-05-22T08:04:31.564Z,15.87
2019-05-22T08:19:39.488Z,14.87
2019-05-22T08:34:48.103Z,14.70
2019-05-22T08:49:56.023Z,12.83
2019-05-22T09:05:03.937Z,9.20
2019-05-22T09:20:12.055Z,8.90
2019-05-22T09:35:20.701Z,10.50
2019-05-22T09:50:29.323Z,9.90
2019-05-22T10:05:37.970Z,9.67
2019-05-22T10:20:46.740Z,7.80
2019-05-22T10:35:55.049Z,6.90
2019-05-22T10:51:02.857Z,6.70
2019-05-22T11:06:11.199Z,8.10
2019-05-22T11:21:20.319Z,9.03
2019-05-22T11:36:29.339Z,8.58
2019-05-22T11:51:38.131Z,7.60
2019-05-22T12:06:47.144Z,7.17
2019-05-22T12:21:55.132Z,7.40
2019-05-22T12:37:05.620Z,7.27
2019-05-22T12:52:13.389Z,6.60
2019-05-22T13:07:21.788Z,6.87
2019-05-22T13:22:33.125Z,7.03
2019-05-22T13:37:41.575Z,6.80
2019-05-22T13:52:50.308Z,6.83
2019-05-22T14:07:58.581Z,7.00
2019-05-22T14:23:08.896Z,7.50
2019-05-22T14:38:17.210Z,6.57
2019-05-22T14:53:25.193Z,7.93
2019-05-22T15:08:33.024Z,7.53
2019-05-22T15:23:43.746Z,8.10
2019-05-22T15:38:51.859Z,8.10
2019-05-22T15:54:02.664Z,9.00
2019-05-22T16:09:15.265Z,8.40
2019-05-22T16:24:24.111Z,8.57
2019-05-22T16:39:32.073Z,6.17
2019-05-22T16:54:41.365Z,6.63
2019-05-22T17:09:51.790Z,6.57
2019-05-22T17:25:00.179Z,7.20
2019-05-22T17:40:10.609Z,6.20
2019-05-22T17:55:20.258Z,4.87
2019-05-22T18:10:31.496Z,4.50
2019-05-22T18:25:39.583Z,5.80
2019-05-22T18:40:47.365Z,6.07
2019-05-22T18:55:55.404Z,5.70
2019-05-22T19:11:04.264Z,6.30
2019-05-22T19:26:12.146Z,6.57
2019-05-22T19:41:20.360Z,6.77
2019-05-22T19:56:28.315Z,7.47
2019-05-22T20:11:36.103Z,8.10
2019-05-22T20:26:44.132Z,7.33
2019-05-22T20:41:53.434Z,8.75
2019-05-22T20:57:02.456Z,8.17
2019-05-22T21:12:10.847Z,7.40
2019-05-22T21:27:19.319Z,7.80
2019-05-22T21:42:27.894Z,6.63
2019-05-22T21:57:36.706Z,6.93
2019-05-22T22:12:47.041Z,7.20
2019-05-22T22:27:56.235Z,7.23
2019-05-22T22:43:06.701Z,6.97
2019-05-22T22:58:17.615Z,6.77
2019-05-22T23:13:25.301Z,6.95
2019-05-22T23:28:34.932Z,6.67
2019-05-22T23:43:45.073Z,6.30
2019-05-22T23:58:53.512Z,6.40
